sensor_id;sensor_type;location;lat;lon;timestamp;P1;durP1;ratioP1;P2;durP2;ratioP2
13571;SDS011;6857;53.484;10.216;2023-04-05T00:00:53;3.97;;;2.67;;
13571;SDS011;6857;53.484;10.216;2023-04-05T00:03:19;5.97;;;2.83;;
13571;SDS011;6857;53.484;10.216;2023-04-05T00:05:45;3.67;;;2.23;;
13571;SDS011;6857;53.484;10.216;2023-04-05T00:08:13;5.40;;;3.10;;
13571;SDS011;6857;53.484;10.216;2023-04-05T00:10:47;5.47;;;2.90;;
13571;SDS011;6857;53.484;10.216;2023-04-05T00:13:14;4.20;;;2.80;;
13571;SDS011;6857;53.484;10.216;2023-04-05T00:15:40;5.23;;;2.90;;
13571;SDS011;6857;53.484;10.216;2023-04-05T00:18:06;15.93;;;3.27;;
13571;SDS011;6857;53.484;10.216;2023-04-05T00:20:32;6.57;;;2.83;;
13571;SDS011;6857;53.484;10.216;2023-04-05T00:23:01;6.03;;;2.83;;
13571;SDS011;6857;53.484;10.216;2023-04-05T00:25:27;5.60;;;2.97;;
13571;SDS011;6857;53.484;10.216;2023-04-05T00:27:53;4.93;;;2.77;;
13571;SDS011;6857;53.484;10.216;2023-04-05T00:30:19;4.50;;;2.53;;
13571;SDS011;6857;53.484;10.216;2023-04-05T00:32:48;6.40;;;3.00;;
13571;SDS011;6857;53.484;10.216;2023-04-05T00:35:15;6.13;;;3.60;;
13571;SDS011;6857;53.484;10.216;2023-04-05T00:37:41;7.33;;;3.30;;
13571;SDS011;6857;53.484;10.216;2023-04-05T00:40:07;6.33;;;2.70;;
13571;SDS011;6857;53.484;10.216;2023-04-05T00:42:34;5.10;;;2.87;;
13571;SDS011;6857;53.484;10.216;2023-04-05T00:45:00;6.47;;;3.20;;
13571;SDS011;6857;53.484;10.216;2023-04-05T00:47:26;7.50;;;4.40;;
13571;SDS011;6857;53.484;10.216;2023-04-05T00:49:53;6.00;;;2.93;;
13571;SDS011;6857;53.484;10.216;2023-04-05T00:52:18;6.10;;;2.90;;
13571;SDS011;6857;53.484;10.216;2023-04-05T00:54:47;6.50;;;3.50;;
13571;SDS011;6857;53.484;10.216;2023-04-05T00:57:13;4.70;;;2.73;;
13571;SDS011;6857;53.484;10.216;2023-04-05T00:59:40;3.93;;;2.57;;
13571;SDS011;6857;53.484;10.216;2023-04-05T01:04:41;4.40;;;2.53;;
13571;SDS011;6857;53.484;10.216;2023-04-05T01:09:55;4.87;;;2.80;;
13571;SDS011;6857;53.484;10.216;2023-04-05T01:12:22;5.57;;;3.10;;
13571;SDS011;6857;53.484;10.216;2023-04-05T01:14:50;5.57;;;2.90;;
13571;SDS011;6857;53.484;10.216;2023-04-05T01:17:17;6.47;;;3.57;;
13571;SDS011;6857;53.484;10.216;2023-04-05T01:19:46;4.07;;;2.83;;
13571;SDS011;6857;53.484;10.216;2023-04-05T01:22:27;5.70;;;3.07;;
13571;SDS011;6857;53.484;10.216;2023-04-05T01:33:06;4.67;;;2.90;;
13571;SDS011;6857;53.484;10.216;2023-04-05T01:35:38;6.00;;;3.30;;
13571;SDS011;6857;53.484;10.216;2023-04-05T01:38:06;9.97;;;3.17;;
13571;SDS011;6857;53.484;10.216;2023-04-05T01:40:34;4.67;;;2.63;;
13571;SDS011;6857;53.484;10.216;2023-04-05T01:43:02;5.50;;;2.40;;
13571;SDS011;6857;53.484;10.216;2023-04-05T01:45:28;4.83;;;2.73;;
13571;SDS011;6857;53.484;10.216;2023-04-05T01:47:54;5.17;;;2.43;;
13571;SDS011;6857;53.484;10.216;2023-04-05T01:50:20;8.63;;;3.03;;
13571;SDS011;6857;53.484;10.216;2023-04-05T01:52:46;5.73;;;2.37;;
13571;SDS011;6857;53.484;10.216;2023-04-05T01:55:11;6.70;;;2.90;;
13571;SDS011;6857;53.484;10.216;2023-04-05T01:57:37;8.13;;;2.93;;
13571;SDS011;6857;53.484;10.216;2023-04-05T02:00:03;6.07;;;3.10;;
13571;SDS011;6857;53.484;10.216;2023-04-05T02:02:30;5.13;;;2.60;;
13571;SDS011;6857;53.484;10.216;2023-04-05T02:04:55;6.03;;;2.90;;
13571;SDS011;6857;53.484;10.216;2023-04-05T02:07:21;5.70;;;3.03;;
13571;SDS011;6857;53.484;10.216;2023-04-05T02:09:49;5.13;;;2.63;;
13571;SDS011;6857;53.484;10.216;2023-04-05T02:12:15;5.20;;;2.70;;
13571;SDS011;6857;53.484;10.216;2023-04-05T02:14:41;5.33;;;2.83;;
13571;SDS011;6857;53.484;10.216;2023-04-05T02:17:07;3.77;;;2.37;;
13571;SDS011;6857;53.484;10.216;2023-04-05T02:19:33;5.13;;;2.87;;
13571;SDS011;6857;53.484;10.216;2023-04-05T02:22:05;4.67;;;2.53;;
13571;SDS011;6857;53.484;10.216;2023-04-05T02:24:31;4.00;;;2.30;;
13571;SDS011;6857;53.484;10.216;2023-04-05T02:26:57;7.47;;;2.60;;
13571;SDS011;6857;53.484;10.216;2023-04-05T02:29:23;5.47;;;2.50;;
13571;SDS011;6857;53.484;10.216;2023-04-05T02:31:50;4.27;;;2.23;;
13571;SDS011;6857;53.484;10.216;2023-04-05T02:34:16;3.53;;;2.43;;
13571;SDS011;6857;53.484;10.216;2023-04-05T02:36:42;4.83;;;2.47;;
13571;SDS011;6857;53.484;10.216;2023-04-05T02:39:08;6.30;;;2.50;;
13571;SDS011;6857;53.484;10.216;2023-04-05T02:41:34;3.47;;;2.03;;
13571;SDS011;6857;53.484;10.216;2023-04-05T02:44:00;4.70;;;2.53;;
13571;SDS011;6857;53.484;10.216;2023-04-05T02:46:27;6.60;;;2.80;;
13571;SDS011;6857;53.484;10.216;2023-04-05T02:48:53;4.47;;;2.30;;
13571;SDS011;6857;53.484;10.216;2023-04-05T02:51:18;5.40;;;2.60;;
13571;SDS011;6857;53.484;10.216;2023-04-05T02:53:44;4.50;;;2.50;;
13571;SDS011;6857;53.484;10.216;2023-04-05T02:56:12;2.93;;;2.40;;
13571;SDS011;6857;53.484;10.216;2023-04-05T02:58:38;4.50;;;2.63;;
13571;SDS011;6857;53.484;10.216;2023-04-05T03:01:05;6.37;;;3.00;;
13571;SDS011;6857;53.484;10.216;2023-04-05T03:03:31;4.47;;;3.00;;
13571;SDS011;6857;53.484;10.216;2023-04-05T03:05:58;6.13;;;2.93;;
13571;SDS011;6857;53.484;10.216;2023-04-05T03:08:25;5.80;;;3.37;;
13571;SDS011;6857;53.484;10.216;2023-04-05T03:10:52;7.43;;;3.10;;
13571;SDS011;6857;53.484;10.216;2023-04-05T03:13:18;4.20;;;2.90;;
13571;SDS011;6857;53.484;10.216;2023-04-05T03:15:44;5.83;;;3.43;;
13571;SDS011;6857;53.484;10.216;2023-04-05T03:18:10;6.10;;;3.10;;
13571;SDS011;6857;53.484;10.216;2023-04-05T03:20:36;5.73;;;3.03;;
13571;SDS011;6857;53.484;10.216;2023-04-05T03:23:04;5.50;;;2.87;;
13571;SDS011;6857;53.484;10.216;2023-04-05T03:25:31;5.40;;;3.10;;
13571;SDS011;6857;53.484;10.216;2023-04-05T03:27:58;6.23;;;2.60;;
13571;SDS011;6857;53.484;10.216;2023-04-05T03:30:24;6.53;;;2.53;;
13571;SDS011;6857;53.484;10.216;2023-04-05T03:32:50;3.90;;;1.97;;
13571;SDS011;6857;53.484;10.216;2023-04-05T03:35:16;5.33;;;2.57;;
13571;SDS011;6857;53.484;10.216;2023-04-05T03:37:43;5.27;;;2.50;;
13571;SDS011;6857;53.484;10.216;2023-04-05T03:40:10;3.43;;;2.13;;
13571;SDS011;6857;53.484;10.216;2023-04-05T03:42:36;5.60;;;2.07;;
13571;SDS011;6857;53.484;10.216;2023-04-05T03:45:03;6.40;;;2.20;;
13571;SDS011;6857;53.484;10.216;2023-04-05T03:47:30;4.10;;;2.30;;
13571;SDS011;6857;53.484;10.216;2023-04-05T03:49:56;2.77;;;1.87;;
13571;SDS011;6857;53.484;10.216;2023-04-05T03:52:22;4.37;;;2.40;;
13571;SDS011;6857;53.484;10.216;2023-04-05T03:54:48;5.60;;;2.50;;
13571;SDS011;6857;53.484;10.216;2023-04-05T03:57:13;3.80;;;2.50;;
13571;SDS011;6857;53.484;10.216;2023-04-05T03:59:39;4.33;;;2.37;;
13571;SDS011;6857;53.484;10.216;2023-04-05T04:02:06;4.73;;;2.30;;
13571;SDS011;6857;53.484;10.216;2023-04-05T04:04:32;4.67;;;2.40;;
13571;SDS011;6857;53.484;10.216;2023-04-05T04:06:58;5.80;;;2.30;;
13571;SDS011;6857;53.484;10.216;2023-04-05T04:09:24;7.53;;;2.53;;
13571;SDS011;6857;53.484;10.216;2023-04-05T04:11:51;4.20;;;2.50;;
13571;SDS011;6857;53.484;10.216;2023-04-05T04:14:17;5.60;;;2.57;;
13571;SDS011;6857;53.484;10.216;2023-04-05T04:16:43;10.80;;;2.30;;
13571;SDS011;6857;53.484;10.216;2023-04-05T04:19:09;5.50;;;2.00;;
13571;SDS011;6857;53.484;10.216;2023-04-05T04:21:35;6.00;;;2.53;;
13571;SDS011;6857;53.484;10.216;2023-04-05T04:24:03;4.43;;;2.67;;
13571;SDS011;6857;53.484;10.216;2023-04-05T04:26:29;3.33;;;1.97;;
13571;SDS011;6857;53.484;10.216;2023-04-05T04:29:01;4.37;;;2.00;;
13571;SDS011;6857;53.484;10.216;2023-04-05T04:31:30;5.33;;;2.30;;
13571;SDS011;6857;53.484;10.216;2023-04-05T04:33:57;5.00;;;2.27;;
13571;SDS011;6857;53.484;10.216;2023-04-05T04:36:26;3.37;;;2.10;;
13571;SDS011;6857;53.484;10.216;2023-04-05T04:38:59;5.50;;;2.43;;
13571;SDS011;6857;53.484;10.216;2023-04-05T04:41:29;7.03;;;2.70;;
13571;SDS011;6857;53.484;10.216;2023-04-05T04:43:57;6.13;;;3.00;;
13571;SDS011;6857;53.484;10.216;2023-04-05T04:46:26;5.43;;;2.67;;
13571;SDS011;6857;53.484;10.216;2023-04-05T04:48:55;5.47;;;2.30;;
13571;SDS011;6857;53.484;10.216;2023-04-05T04:51:21;6.80;;;2.73;;
13571;SDS011;6857;53.484;10.216;2023-04-05T04:53:47;7.47;;;2.83;;
13571;SDS011;6857;53.484;10.216;2023-04-05T04:56:13;15.80;;;4.03;;
13571;SDS011;6857;53.484;10.216;2023-04-05T04:58:39;8.93;;;3.53;;
13571;SDS011;6857;53.484;10.216;2023-04-05T05:01:08;9.03;;;3.77;;
13571;SDS011;6857;53.484;10.216;2023-04-05T05:03:34;6.40;;;2.93;;
13571;SDS011;6857;53.484;10.216;2023-04-05T05:06:02;8.47;;;3.33;;
13571;SDS011;6857;53.484;10.216;2023-04-05T05:08:28;6.43;;;3.30;;
13571;SDS011;6857;53.484;10.216;2023-04-05T05:10:54;7.63;;;4.83;;
13571;SDS011;6857;53.484;10.216;2023-04-05T05:13:20;6.20;;;2.97;;
13571;SDS011;6857;53.484;10.216;2023-04-05T05:15:46;6.10;;;3.37;;
13571;SDS011;6857;53.484;10.216;2023-04-05T05:18:13;6.40;;;4.33;;
13571;SDS011;6857;53.484;10.216;2023-04-05T05:20:39;8.33;;;3.80;;
13571;SDS011;6857;53.484;10.216;2023-04-05T05:23:06;8.00;;;5.30;;
13571;SDS011;6857;53.484;10.216;2023-04-05T05:25:32;9.63;;;6.13;;
13571;SDS011;6857;53.484;10.216;2023-04-05T05:27:58;8.20;;;4.17;;
13571;SDS011;6857;53.484;10.216;2023-04-05T05:30:24;7.63;;;3.47;;
13571;SDS011;6857;53.484;10.216;2023-04-05T05:32:51;5.67;;;3.87;;
13571;SDS011;6857;53.484;10.216;2023-04-05T05:35:17;8.97;;;4.50;;
13571;SDS011;6857;53.484;10.216;2023-04-05T05:37:43;6.73;;;3.83;;
13571;SDS011;6857;53.484;10.216;2023-04-05T05:40:09;5.53;;;3.70;;
13571;SDS011;6857;53.484;10.216;2023-04-05T05:42:37;5.97;;;3.77;;
13571;SDS011;6857;53.484;10.216;2023-04-05T05:45:04;9.40;;;4.63;;
13571;SDS011;6857;53.484;10.216;2023-04-05T05:47:30;9.43;;;4.20;;
13571;SDS011;6857;53.484;10.216;2023-04-05T05:49:56;10.87;;;4.50;;
13571;SDS011;6857;53.484;10.216;2023-04-05T05:52:22;14.23;;;4.83;;
13571;SDS011;6857;53.484;10.216;2023-04-05T05:54:48;13.63;;;6.40;;
13571;SDS011;6857;53.484;10.216;2023-04-05T05:57:14;10.20;;;5.33;;
13571;SDS011;6857;53.484;10.216;2023-04-05T05:59:40;7.70;;;4.73;;
13571;SDS011;6857;53.484;10.216;2023-04-05T06:02:06;12.63;;;4.47;;
13571;SDS011;6857;53.484;10.216;2023-04-05T06:04:33;8.33;;;4.70;;
13571;SDS011;6857;53.484;10.216;2023-04-05T06:06:59;7.17;;;4.00;;
13571;SDS011;6857;53.484;10.216;2023-04-05T06:09:25;6.33;;;4.47;;
13571;SDS011;6857;53.484;10.216;2023-04-05T06:11:52;8.23;;;5.13;;
13571;SDS011;6857;53.484;10.216;2023-04-05T06:14:18;8.23;;;4.73;;
13571;SDS011;6857;53.484;10.216;2023-04-05T06:16:45;10.17;;;6.07;;
13571;SDS011;6857;53.484;10.216;2023-04-05T06:19:11;10.47;;;5.07;;
13571;SDS011;6857;53.484;10.216;2023-04-05T06:21:37;7.17;;;4.77;;
13571;SDS011;6857;53.484;10.216;2023-04-05T06:24:03;10.10;;;5.20;;
13571;SDS011;6857;53.484;10.216;2023-04-05T06:26:29;9.27;;;5.40;;
13571;SDS011;6857;53.484;10.216;2023-04-05T06:28:56;10.20;;;4.57;;
13571;SDS011;6857;53.484;10.216;2023-04-05T06:31:31;9.13;;;4.73;;
13571;SDS011;6857;53.484;10.216;2023-04-05T06:33:57;17.00;;;6.97;;
13571;SDS011;6857;53.484;10.216;2023-04-05T06:36:23;8.43;;;4.93;;
13571;SDS011;6857;53.484;10.216;2023-04-05T06:38:50;11.07;;;5.07;;
13571;SDS011;6857;53.484;10.216;2023-04-05T06:41:17;11.10;;;4.27;;
13571;SDS011;6857;53.484;10.216;2023-04-05T06:43:43;8.43;;;4.33;;
13571;SDS011;6857;53.484;10.216;2023-04-05T06:46:09;11.80;;;4.13;;
13571;SDS011;6857;53.484;10.216;2023-04-05T06:48:36;6.37;;;3.40;;
13571;SDS011;6857;53.484;10.216;2023-04-05T06:51:02;8.43;;;4.03;;
13571;SDS011;6857;53.484;10.216;2023-04-05T06:53:29;8.07;;;3.93;;
13571;SDS011;6857;53.484;10.216;2023-04-05T06:55:55;8.37;;;3.87;;
13571;SDS011;6857;53.484;10.216;2023-04-05T06:58:21;8.60;;;4.00;;
13571;SDS011;6857;53.484;10.216;2023-04-05T07:00:48;8.67;;;4.47;;
13571;SDS011;6857;53.484;10.216;2023-04-05T07:03:14;9.97;;;3.57;;
13571;SDS011;6857;53.484;10.216;2023-04-05T07:05:40;8.57;;;3.90;;
13571;SDS011;6857;53.484;10.216;2023-04-05T07:08:06;7.63;;;3.63;;
13571;SDS011;6857;53.484;10.216;2023-04-05T07:10:32;9.13;;;3.30;;
13571;SDS011;6857;53.484;10.216;2023-04-05T07:12:58;7.67;;;3.50;;
13571;SDS011;6857;53.484;10.216;2023-04-05T07:15:24;9.30;;;3.87;;
13571;SDS011;6857;53.484;10.216;2023-04-05T07:17:50;10.63;;;4.17;;
13571;SDS011;6857;53.484;10.216;2023-04-05T07:20:16;10.07;;;4.50;;
13571;SDS011;6857;53.484;10.216;2023-04-05T07:22:42;14.03;;;5.97;;
13571;SDS011;6857;53.484;10.216;2023-04-05T07:25:08;11.23;;;4.00;;
13571;SDS011;6857;53.484;10.216;2023-04-05T07:27:34;6.77;;;3.00;;
13571;SDS011;6857;53.484;10.216;2023-04-05T07:30:00;7.13;;;3.17;;
13571;SDS011;6857;53.484;10.216;2023-04-05T07:32:26;9.00;;;3.87;;
13571;SDS011;6857;53.484;10.216;2023-04-05T07:34:52;7.73;;;4.40;;
13571;SDS011;6857;53.484;10.216;2023-04-05T07:37:18;5.23;;;2.70;;
13571;SDS011;6857;53.484;10.216;2023-04-05T07:39:44;4.20;;;2.50;;
13571;SDS011;6857;53.484;10.216;2023-04-05T07:42:10;5.07;;;2.83;;
13571;SDS011;6857;53.484;10.216;2023-04-05T07:44:36;4.73;;;3.03;;
13571;SDS011;6857;53.484;10.216;2023-04-05T07:47:02;6.57;;;2.83;;
13571;SDS011;6857;53.484;10.216;2023-04-05T07:49:28;6.50;;;2.93;;
13571;SDS011;6857;53.484;10.216;2023-04-05T07:51:55;5.10;;;2.40;;
13571;SDS011;6857;53.484;10.216;2023-04-05T07:54:21;4.87;;;2.77;;
13571;SDS011;6857;53.484;10.216;2023-04-05T07:56:47;4.43;;;1.80;;
13571;SDS011;6857;53.484;10.216;2023-04-05T07:59:14;2.10;;;1.70;;
13571;SDS011;6857;53.484;10.216;2023-04-05T08:01:39;2.60;;;1.87;;
13571;SDS011;6857;53.484;10.216;2023-04-05T08:04:06;3.57;;;2.07;;
13571;SDS011;6857;53.484;10.216;2023-04-05T08:06:32;4.50;;;2.00;;
13571;SDS011;6857;53.484;10.216;2023-04-05T08:08:58;5.07;;;1.87;;
13571;SDS011;6857;53.484;10.216;2023-04-05T08:11:24;3.57;;;1.77;;
13571;SDS011;6857;53.484;10.216;2023-04-05T08:13:50;5.07;;;2.00;;
13571;SDS011;6857;53.484;10.216;2023-04-05T08:16:18;3.20;;;1.60;;
13571;SDS011;6857;53.484;10.216;2023-04-05T08:18:44;5.87;;;2.03;;
13571;SDS011;6857;53.484;10.216;2023-04-05T08:21:10;3.90;;;1.80;;
13571;SDS011;6857;53.484;10.216;2023-04-05T08:23:36;6.77;;;1.83;;
13571;SDS011;6857;53.484;10.216;2023-04-05T08:26:02;2.83;;;1.60;;
13571;SDS011;6857;53.484;10.216;2023-04-05T08:28:28;5.07;;;1.70;;
13571;SDS011;6857;53.484;10.216;2023-04-05T08:30:54;4.00;;;2.00;;
13571;SDS011;6857;53.484;10.216;2023-04-05T08:33:21;4.43;;;1.70;;
13571;SDS011;6857;53.484;10.216;2023-04-05T08:35:47;2.40;;;1.70;;
13571;SDS011;6857;53.484;10.216;2023-04-05T08:38:13;3.93;;;1.90;;
13571;SDS011;6857;53.484;10.216;2023-04-05T08:40:43;3.10;;;1.47;;
13571;SDS011;6857;53.484;10.216;2023-04-05T08:43:11;2.93;;;1.77;;
13571;SDS011;6857;53.484;10.216;2023-04-05T08:45:42;2.60;;;1.73;;
13571;SDS011;6857;53.484;10.216;2023-04-05T08:48:09;5.57;;;1.73;;
13571;SDS011;6857;53.484;10.216;2023-04-05T08:50:34;6.33;;;2.00;;
13571;SDS011;6857;53.484;10.216;2023-04-05T08:53:00;7.07;;;2.57;;
13571;SDS011;6857;53.484;10.216;2023-04-05T08:55:27;6.13;;;2.00;;
13571;SDS011;6857;53.484;10.216;2023-04-05T08:57:53;4.60;;;2.63;;
13571;SDS011;6857;53.484;10.216;2023-04-05T09:00:23;4.27;;;1.90;;
13571;SDS011;6857;53.484;10.216;2023-04-05T09:02:50;7.07;;;2.00;;
13571;SDS011;6857;53.484;10.216;2023-04-05T09:05:18;4.77;;;1.90;;
13571;SDS011;6857;53.484;10.216;2023-04-05T09:07:45;4.30;;;1.87;;
13571;SDS011;6857;53.484;10.216;2023-04-05T09:10:12;3.17;;;1.83;;
13571;SDS011;6857;53.484;10.216;2023-04-05T09:12:38;3.93;;;1.70;;
13571;SDS011;6857;53.484;10.216;2023-04-05T09:15:05;6.87;;;2.27;;
13571;SDS011;6857;53.484;10.216;2023-04-05T09:17:32;4.97;;;2.57;;
13571;SDS011;6857;53.484;10.216;2023-04-05T09:19:58;4.07;;;2.20;;
13571;SDS011;6857;53.484;10.216;2023-04-05T09:22:24;3.70;;;2.20;;
13571;SDS011;6857;53.484;10.216;2023-04-05T09:24:50;5.17;;;2.40;;
13571;SDS011;6857;53.484;10.216;2023-04-05T09:27:16;8.53;;;2.20;;
13571;SDS011;6857;53.484;10.216;2023-04-05T09:29:46;6.07;;;2.50;;
13571;SDS011;6857;53.484;10.216;2023-04-05T09:32:13;3.17;;;1.80;;
13571;SDS011;6857;53.484;10.216;2023-04-05T09:34:40;3.57;;;2.33;;
13571;SDS011;6857;53.484;10.216;2023-04-05T09:37:13;4.30;;;2.13;;
13571;SDS011;6857;53.484;10.216;2023-04-05T09:39:39;5.53;;;2.40;;
13571;SDS011;6857;53.484;10.216;2023-04-05T09:42:09;8.57;;;2.53;;
13571;SDS011;6857;53.484;10.216;2023-04-05T09:44:55;5.53;;;2.90;;
13571;SDS011;6857;53.484;10.216;2023-04-05T09:47:22;5.43;;;2.07;;
13571;SDS011;6857;53.484;10.216;2023-04-05T09:49:49;5.23;;;2.10;;
13571;SDS011;6857;53.484;10.216;2023-04-05T09:52:25;4.63;;;2.53;;
13571;SDS011;6857;53.484;10.216;2023-04-05T09:54:52;3.53;;;2.17;;
13571;SDS011;6857;53.484;10.216;2023-04-05T09:57:20;4.23;;;2.07;;
13571;SDS011;6857;53.484;10.216;2023-04-05T09:59:47;6.90;;;2.90;;
13571;SDS011;6857;53.484;10.216;2023-04-05T10:02:13;6.07;;;2.47;;
13571;SDS011;6857;53.484;10.216;2023-04-05T10:04:40;5.93;;;2.97;;
13571;SDS011;6857;53.484;10.216;2023-04-05T10:07:10;5.47;;;3.40;;
13571;SDS011;6857;53.484;10.216;2023-04-05T10:09:40;5.10;;;2.70;;
13571;SDS011;6857;53.484;10.216;2023-04-05T10:12:06;7.80;;;3.03;;
13571;SDS011;6857;53.484;10.216;2023-04-05T10:14:33;6.93;;;3.07;;
13571;SDS011;6857;53.484;10.216;2023-04-05T10:17:22;6.00;;;3.10;;
13571;SDS011;6857;53.484;10.216;2023-04-05T10:19:50;4.77;;;2.87;;
13571;SDS011;6857;53.484;10.216;2023-04-05T10:22:23;6.50;;;2.90;;
13571;SDS011;6857;53.484;10.216;2023-04-05T10:24:53;6.37;;;2.90;;
13571;SDS011;6857;53.484;10.216;2023-04-05T10:27:27;6.00;;;3.17;;
13571;SDS011;6857;53.484;10.216;2023-04-05T10:32:51;7.50;;;3.63;;
13571;SDS011;6857;53.484;10.216;2023-04-05T10:35:19;4.63;;;3.30;;
13571;SDS011;6857;53.484;10.216;2023-04-05T10:37:53;8.10;;;3.60;;
13571;SDS011;6857;53.484;10.216;2023-04-05T10:40:24;5.10;;;3.30;;
13571;SDS011;6857;53.484;10.216;2023-04-05T10:42:54;5.63;;;3.57;;
13571;SDS011;6857;53.484;10.216;2023-04-05T10:45:20;8.33;;;3.93;;
13571;SDS011;6857;53.484;10.216;2023-04-05T10:47:54;4.60;;;3.47;;
13571;SDS011;6857;53.484;10.216;2023-04-05T10:50:22;4.27;;;3.20;;
13571;SDS011;6857;53.484;10.216;2023-04-05T10:52:55;7.27;;;3.60;;
13571;SDS011;6857;53.484;10.216;2023-04-05T10:55:23;10.67;;;3.70;;
13571;SDS011;6857;53.484;10.216;2023-04-05T10:57:49;6.17;;;3.40;;
13571;SDS011;6857;53.484;10.216;2023-04-05T11:00:15;14.47;;;3.77;;
13571;SDS011;6857;53.484;10.216;2023-04-05T11:02:42;6.90;;;3.97;;
13571;SDS011;6857;53.484;10.216;2023-04-05T11:05:27;7.53;;;3.70;;
13571;SDS011;6857;53.484;10.216;2023-04-05T11:07:53;6.70;;;4.10;;
13571;SDS011;6857;53.484;10.216;2023-04-05T11:10:24;5.40;;;3.13;;
13571;SDS011;6857;53.484;10.216;2023-04-05T11:20:39;6.30;;;3.27;;
13571;SDS011;6857;53.484;10.216;2023-04-05T11:23:06;5.13;;;2.83;;
13571;SDS011;6857;53.484;10.216;2023-04-05T11:25:35;5.40;;;3.03;;
13571;SDS011;6857;53.484;10.216;2023-04-05T11:28:02;3.90;;;3.23;;
13571;SDS011;6857;53.484;10.216;2023-04-05T11:30:48;5.10;;;3.13;;
13571;SDS011;6857;53.484;10.216;2023-04-05T11:33:38;4.90;;;2.83;;
13571;SDS011;6857;53.484;10.216;2023-04-05T11:36:28;4.70;;;3.33;;
13571;SDS011;6857;53.484;10.216;2023-04-05T11:41:39;4.40;;;3.60;;
13571;SDS011;6857;53.484;10.216;2023-04-05T11:44:05;6.17;;;3.20;;
13571;SDS011;6857;53.484;10.216;2023-04-05T11:46:38;4.87;;;2.63;;
13571;SDS011;6857;53.484;10.216;2023-04-05T11:49:04;6.33;;;2.87;;
13571;SDS011;6857;53.484;10.216;2023-04-05T11:51:32;7.57;;;2.73;;
13571;SDS011;6857;53.484;10.216;2023-04-05T11:53:58;5.63;;;2.83;;
13571;SDS011;6857;53.484;10.216;2023-04-05T11:56:23;5.63;;;3.17;;
13571;SDS011;6857;53.484;10.216;2023-04-05T11:58:50;4.07;;;2.87;;
13571;SDS011;6857;53.484;10.216;2023-04-05T12:01:16;6.73;;;3.37;;
13571;SDS011;6857;53.484;10.216;2023-04-05T12:03:42;4.57;;;3.27;;
13571;SDS011;6857;53.484;10.216;2023-04-05T12:06:08;6.03;;;2.97;;
13571;SDS011;6857;53.484;10.216;2023-04-05T12:11:05;6.90;;;4.43;;
13571;SDS011;6857;53.484;10.216;2023-04-05T12:13:32;5.20;;;3.10;;
13571;SDS011;6857;53.484;10.216;2023-04-05T12:16:03;5.70;;;3.00;;
13571;SDS011;6857;53.484;10.216;2023-04-05T12:18:30;4.00;;;2.77;;
13571;SDS011;6857;53.484;10.216;2023-04-05T12:20:56;4.17;;;2.90;;
13571;SDS011;6857;53.484;10.216;2023-04-05T12:23:22;4.40;;;3.07;;
13571;SDS011;6857;53.484;10.216;2023-04-05T12:25:49;5.87;;;3.90;;
13571;SDS011;6857;53.484;10.216;2023-04-05T12:28:15;6.13;;;3.03;;
13571;SDS011;6857;53.484;10.216;2023-04-05T12:30:48;4.43;;;2.80;;
13571;SDS011;6857;53.484;10.216;2023-04-05T12:33:14;4.37;;;2.97;;
13571;SDS011;6857;53.484;10.216;2023-04-05T12:35:40;4.23;;;2.90;;
13571;SDS011;6857;53.484;10.216;2023-04-05T12:38:06;6.13;;;3.33;;
13571;SDS011;6857;53.484;10.216;2023-04-05T12:40:33;4.40;;;2.90;;
13571;SDS011;6857;53.484;10.216;2023-04-05T12:43:03;6.50;;;2.90;;
13571;SDS011;6857;53.484;10.216;2023-04-05T12:45:29;5.33;;;3.40;;
13571;SDS011;6857;53.484;10.216;2023-04-05T12:48:03;5.20;;;3.10;;
13571;SDS011;6857;53.484;10.216;2023-04-05T12:50:32;5.03;;;3.20;;
13571;SDS011;6857;53.484;10.216;2023-04-05T12:52:58;4.07;;;2.83;;
13571;SDS011;6857;53.484;10.216;2023-04-05T12:55:25;5.07;;;3.07;;
13571;SDS011;6857;53.484;10.216;2023-04-05T12:57:52;8.70;;;3.37;;
13571;SDS011;6857;53.484;10.216;2023-04-05T13:00:18;3.33;;;2.47;;
13571;SDS011;6857;53.484;10.216;2023-04-05T13:02:52;4.27;;;2.67;;
13571;SDS011;6857;53.484;10.216;2023-04-05T13:05:28;3.87;;;2.20;;
13571;SDS011;6857;53.484;10.216;2023-04-05T13:07:54;2.70;;;2.33;;
13571;SDS011;6857;53.484;10.216;2023-04-05T13:10:21;5.63;;;3.23;;
13571;SDS011;6857;53.484;10.216;2023-04-05T13:12:48;4.40;;;2.67;;
13571;SDS011;6857;53.484;10.216;2023-04-05T13:15:14;4.37;;;3.27;;
13571;SDS011;6857;53.484;10.216;2023-04-05T13:17:41;3.77;;;2.80;;
13571;SDS011;6857;53.484;10.216;2023-04-05T13:20:07;5.00;;;2.80;;
13571;SDS011;6857;53.484;10.216;2023-04-05T13:22:33;5.00;;;2.90;;
13571;SDS011;6857;53.484;10.216;2023-04-05T13:24:59;4.50;;;3.00;;
13571;SDS011;6857;53.484;10.216;2023-04-05T13:27:25;11.40;;;3.27;;
13571;SDS011;6857;53.484;10.216;2023-04-05T13:29:51;6.40;;;3.17;;
13571;SDS011;6857;53.484;10.216;2023-04-05T13:32:17;5.30;;;3.17;;
13571;SDS011;6857;53.484;10.216;2023-04-05T13:34:43;3.97;;;3.07;;
13571;SDS011;6857;53.484;10.216;2023-04-05T13:37:09;4.77;;;3.40;;
13571;SDS011;6857;53.484;10.216;2023-04-05T13:39:35;8.40;;;3.17;;
13571;SDS011;6857;53.484;10.216;2023-04-05T13:42:01;4.07;;;2.73;;
13571;SDS011;6857;53.484;10.216;2023-04-05T13:44:27;3.30;;;2.70;;
13571;SDS011;6857;53.484;10.216;2023-04-05T13:46:53;4.03;;;2.80;;
13571;SDS011;6857;53.484;10.216;2023-04-05T13:49:19;4.37;;;2.90;;
13571;SDS011;6857;53.484;10.216;2023-04-05T13:51:45;4.77;;;2.83;;
13571;SDS011;6857;53.484;10.216;2023-04-05T13:54:11;5.50;;;2.80;;
13571;SDS011;6857;53.484;10.216;2023-04-05T13:56:37;4.03;;;2.43;;
13571;SDS011;6857;53.484;10.216;2023-04-05T13:59:03;3.17;;;2.30;;
13571;SDS011;6857;53.484;10.216;2023-04-05T14:01:29;3.40;;;2.27;;
13571;SDS011;6857;53.484;10.216;2023-04-05T14:03:55;4.43;;;2.33;;
13571;SDS011;6857;53.484;10.216;2023-04-05T14:06:21;4.17;;;2.83;;
13571;SDS011;6857;53.484;10.216;2023-04-05T14:08:47;4.87;;;2.33;;
13571;SDS011;6857;53.484;10.216;2023-04-05T14:11:18;4.57;;;2.23;;
13571;SDS011;6857;53.484;10.216;2023-04-05T14:13:45;3.00;;;2.00;;
13571;SDS011;6857;53.484;10.216;2023-04-05T14:16:11;3.50;;;2.50;;
13571;SDS011;6857;53.484;10.216;2023-04-05T14:18:37;6.97;;;2.73;;
13571;SDS011;6857;53.484;10.216;2023-04-05T14:21:03;3.80;;;2.27;;
13571;SDS011;6857;53.484;10.216;2023-04-05T14:23:29;6.50;;;2.47;;
13571;SDS011;6857;53.484;10.216;2023-04-05T14:25:54;6.03;;;3.23;;
13571;SDS011;6857;53.484;10.216;2023-04-05T14:28:20;5.07;;;3.53;;
13571;SDS011;6857;53.484;10.216;2023-04-05T14:30:46;7.90;;;3.63;;
13571;SDS011;6857;53.484;10.216;2023-04-05T14:33:13;5.73;;;3.73;;
13571;SDS011;6857;53.484;10.216;2023-04-05T14:35:40;8.27;;;3.90;;
13571;SDS011;6857;53.484;10.216;2023-04-05T14:38:06;6.67;;;3.43;;
13571;SDS011;6857;53.484;10.216;2023-04-05T14:40:32;7.00;;;3.43;;
13571;SDS011;6857;53.484;10.216;2023-04-05T14:42:58;8.60;;;3.43;;
13571;SDS011;6857;53.484;10.216;2023-04-05T14:45:23;7.23;;;3.70;;
13571;SDS011;6857;53.484;10.216;2023-04-05T14:47:51;5.70;;;3.57;;
13571;SDS011;6857;53.484;10.216;2023-04-05T14:50:17;6.70;;;3.90;;
13571;SDS011;6857;53.484;10.216;2023-04-05T14:52:43;6.77;;;3.50;;
13571;SDS011;6857;53.484;10.216;2023-04-05T14:55:12;5.33;;;3.10;;
13571;SDS011;6857;53.484;10.216;2023-04-05T14:57:41;5.30;;;3.30;;
13571;SDS011;6857;53.484;10.216;2023-04-05T15:00:08;8.83;;;4.67;;
13571;SDS011;6857;53.484;10.216;2023-04-05T15:02:35;5.00;;;2.90;;
13571;SDS011;6857;53.484;10.216;2023-04-05T15:05:02;5.17;;;3.17;;
13571;SDS011;6857;53.484;10.216;2023-04-05T15:07:28;6.93;;;3.17;;
13571;SDS011;6857;53.484;10.216;2023-04-05T15:09:54;5.07;;;3.60;;
13571;SDS011;6857;53.484;10.216;2023-04-05T15:12:20;4.53;;;3.37;;
13571;SDS011;6857;53.484;10.216;2023-04-05T15:14:46;4.57;;;3.10;;
13571;SDS011;6857;53.484;10.216;2023-04-05T15:17:14;5.17;;;3.50;;